»·PEaware :: QXE913 KHQM-KHQM

QXE913 :: KHQM-KHQM

FLIGHT INFORMATION

Flight Status: Arrived
Operator:
Horizon Air
More flights by this operator :: More flights under this callsign
Pilot: Anonymous 3903 (3903)
Aircraft: DEHAVILLAND DASH 8 400
(DH8D)
More flights by this aircraft type
Origin: KHQM Bowerman
United States
Destination: KHQM Bowerman
United States
More flights between these airports :: More routes between these airports
Route: +HQM
File this flight plan on PilotEdge
Remarks: Multiple Approaches / Training Flt
Altitude:
(Current/Filed)
5,000ft
Speed:
(Current/Filed)
300kts
Departed: 19-Jun-19 04:05 PM
Arrived: 19-Jun-19 05:02 PM
Distance/Time
Traveled:
0nm/0:57
Distance/Time
To Go:
Arrived

Flight Plot

Page will automatically refresh every two minutes.

Flight plan parsing failed; only flown route is shown


Map Options




Map Legend


Flown Route
Filed Route
Departure Airport
Arrival Airport
Navaid (VOR, NDB)
Fix

Horizontal Profiles

Position Reports

Time Latitude Longitude Heading Altitude Ground
Speed
19-Jun-19 15:42 46.973863 -123.928363 168 21ft 0kts
19-Jun-19 15:43 46.973863 -123.928363 168 21ft 0kts
19-Jun-19 15:44 46.973863 -123.928363 168 21ft 0kts
19-Jun-19 15:45 46.973863 -123.928363 168 21ft 0kts
19-Jun-19 15:46 46.973863 -123.928363 168 21ft 0kts
19-Jun-19 15:47 46.973863 -123.928363 168 21ft 0kts
19-Jun-19 15:48 46.973863 -123.928363 168 21ft 0kts
19-Jun-19 15:49 46.973863 -123.928363 168 21ft 0kts
19-Jun-19 15:51 46.973863 -123.928363 168 21ft 0kts
19-Jun-19 15:52 46.973863 -123.928363 168 21ft 0kts
19-Jun-19 15:53 46.973863 -123.928363 168 21ft 0kts
19-Jun-19 15:54 46.973863 -123.928363 168 21ft 0kts
19-Jun-19 15:55 46.973863 -123.928363 168 21ft 0kts
19-Jun-19 15:56 46.973863 -123.928363 168 21ft 0kts
19-Jun-19 15:57 46.973863 -123.928363 168 21ft 0kts
19-Jun-19 15:58 46.973863 -123.928363 168 21ft 0kts
19-Jun-19 15:59 46.973863 -123.928363 168 21ft 0kts
19-Jun-19 16:00 46.973863 -123.928363 168 21ft 0kts
19-Jun-19 16:01 46.973863 -123.928363 168 21ft 0kts
19-Jun-19 16:02 46.973863 -123.928363 168 21ft 0kts
19-Jun-19 16:03 46.973228 -123.927603 126 21ft 6kts
19-Jun-19 16:04 46.972993 -123.927124 127 21ft 7kts
19-Jun-19 16:05 46.972006 -123.929686 259 21ft 59kts
19-Jun-19 16:06 46.964155 -123.981461 258 1852ft 153kts
19-Jun-19 16:07 46.952238 -124.046998 256 4120ft 173kts
19-Jun-19 16:07 46.947287 -124.109159 267 4980ft 203kts
19-Jun-19 16:09 46.941614 -124.204219 265 4997ft 200kts
19-Jun-19 16:10 46.928818 -124.283953 256 4991ft 202kts
19-Jun-19 16:10 46.892275 -124.327840 214 4991ft 208kts
19-Jun-19 16:12 46.846476 -124.286504 67 4974ft 211kts
19-Jun-19 16:13 46.886336 -124.232637 28 4786ft 196kts
19-Jun-19 16:13 46.925277 -124.196797 27 3852ft 183kts
19-Jun-19 16:14 46.951774 -124.140994 84 2195ft 180kts
19-Jun-19 16:15 46.955554 -124.074429 79 1122ft 156kts
19-Jun-19 16:16 46.962865 -124.008184 75 734ft 171kts
19-Jun-19 16:17 46.971831 -123.939774 76 704ft 170kts
19-Jun-19 16:18 46.964068 -123.870420 152 2458ft 196kts
19-Jun-19 16:19 46.929837 -123.906060 279 2537ft 187kts
19-Jun-19 16:20 46.935900 -123.980095 276 2495ft 178kts
19-Jun-19 16:21 46.940944 -124.052557 276 2777ft 186kts
19-Jun-19 16:22 46.946374 -124.127385 277 3963ft 181kts
19-Jun-19 16:23 46.941513 -124.199582 258 3997ft 183kts
19-Jun-19 16:24 46.911304 -124.252500 173 3988ft 205kts
19-Jun-19 16:25 46.900742 -124.188247 48 4000ft 193kts
19-Jun-19 16:26 46.927414 -124.120380 94 3988ft 207kts
19-Jun-19 16:27 46.885709 -124.101465 234 3996ft 185kts
19-Jun-19 16:28 46.870231 -124.171827 258 3999ft 183kts
19-Jun-19 16:29 46.858411 -124.244451 277 3981ft 181kts
19-Jun-19 16:30 46.893325 -124.286654 9 3995ft 187kts
19-Jun-19 16:31 46.934174 -124.237592 66 3994ft 201kts
19-Jun-19 16:32 46.944023 -124.155724 76 3995ft 206kts
19-Jun-19 16:33 46.928157 -124.086001 172 3993ft 201kts
19-Jun-19 16:34 46.899598 -124.137194 262 4001ft 180kts
19-Jun-19 16:35 46.890008 -124.209890 258 3998ft 183kts
19-Jun-19 16:36 46.877898 -124.282246 273 3996ft 184kts
19-Jun-19 16:37 46.915467 -124.292677 56 3991ft 203kts
19-Jun-19 16:38 46.933381 -124.212911 67 3968ft 208kts
19-Jun-19 16:39 46.944133 -124.130452 113 4921ft 216kts
19-Jun-19 16:40 46.889741 -124.096202 172 5010ft 231kts
19-Jun-19 16:41 46.823633 -124.083525 183 5015ft 242kts
19-Jun-19 16:42 46.759199 -124.072635 170 5020ft 227kts
19-Jun-19 16:43 46.698475 -124.050047 167 5003ft 220kts
19-Jun-19 16:44 46.640371 -124.025250 157 5008ft 218kts
19-Jun-19 16:45 46.630465 -123.950061 69 4887ft 192kts
19-Jun-19 16:46 46.649405 -123.880517 55 3914ft 194kts
19-Jun-19 16:47 46.681155 -123.811953 44 2956ft 208kts
19-Jun-19 16:48 46.719859 -123.756419 34 2787ft 180kts
19-Jun-19 16:49 46.758231 -123.714665 28 2797ft 167kts
19-Jun-19 16:50 46.799110 -123.681338 19 2791ft 171kts
19-Jun-19 16:51 46.845103 -123.660538 7 2787ft 174kts
19-Jun-19 16:52 46.892517 -123.646331 6 2786ft 174kts
19-Jun-19 16:53 46.938680 -123.636497 0 2338ft 169kts
19-Jun-19 16:54 46.986070 -123.633439 355 2312ft 167kts
19-Jun-19 16:55 46.999783 -123.687375 263 2268ft 169kts
19-Jun-19 16:56 46.993234 -123.750706 264 2306ft 149kts
19-Jun-19 16:57 46.987189 -123.804408 264 1641ft 109kts
19-Jun-19 16:58 46.982273 -123.846601 264 1105ft 105kts
19-Jun-19 16:59 46.977273 -123.886894 263 607ft 94kts
19-Jun-19 17:00 46.972476 -123.925758 262 51ft 95kts
19-Jun-19 17:01 46.970908 -123.939559 296 21ft 10kts
19-Jun-19 17:02 46.972300 -123.936058 81 21ft 15kts
19-Jun-19 17:03 46.973399 -123.929709 84 21ft 20kts
19-Jun-19 17:04 46.973830 -123.928415 332 21ft 0kts
19-Jun-19 17:05 46.973830 -123.928415 332 21ft 0kts

Navigation Log

Ident Type
Flight plan parsing failed, navigation log unavailable